createdAt,value
2022-11-18T00:01:39.381Z,101139.56
2022-11-18T00:04:09.845Z,101137.97
2022-11-18T00:06:39.875Z,101149.28
2022-11-18T00:09:10.922Z,101148.38
2022-11-18T00:11:59.232Z,101145.25
2022-11-18T00:14:29.704Z,101154.63
2022-11-18T00:17:02.569Z,101150.63
2022-11-18T00:19:34.173Z,101154.16
2022-11-18T00:22:05.811Z,101156.81
2022-11-18T00:24:36.614Z,101162.91
2022-11-18T00:27:06.168Z,101173.13
2022-11-18T00:29:35.907Z,101174.47
2022-11-18T00:32:06.930Z,101176.63
2022-11-18T00:34:36.961Z,101171.84
2022-11-18T00:37:07.443Z,101170.84
2022-11-18T00:39:37.562Z,101179.84
2022-11-18T00:42:25.742Z,101177.75
2022-11-18T00:44:56.211Z,101180.06
2022-11-18T00:47:26.471Z,101176.50
2022-11-18T00:49:56.914Z,101170.03
2022-11-18T00:52:26.966Z,101171.00
2022-11-18T00:54:57.418Z,101168.13
2022-11-18T00:57:27.462Z,101166.94
2022-11-18T00:59:57.230Z,101169.91
2022-11-18T01:02:27.227Z,101164.63
2022-11-18T01:04:56.897Z,101161.31
2022-11-18T01:07:27.153Z,101158.72
2022-11-18T01:09:59.313Z,101159.75
2022-11-18T01:12:52.963Z,101157.41
2022-11-18T01:15:24.739Z,101152.75
2022-11-18T01:17:54.860Z,101146.19
2022-11-18T01:20:25.276Z,101149.16
2022-11-18T01:22:55.434Z,101148.72
2022-11-18T01:25:26.022Z,101138.69
2022-11-18T01:27:56.395Z,101145.38
2022-11-18T01:30:29.741Z,101144.34
2022-11-18T01:33:00.051Z,101133.28
2022-11-18T01:35:30.586Z,101133.94
2022-11-18T01:38:00.412Z,101135.16
2022-11-18T01:40:35.426Z,101139.44
2022-11-18T01:43:13.976Z,101131.19
2022-11-18T01:45:46.854Z,101139.53
2022-11-18T01:48:35.543Z,101128.72
2022-11-18T01:51:17.689Z,101138.97
2022-11-18T01:53:56.815Z,101135.53
2022-11-18T01:56:32.377Z,101119.22
2022-11-18T01:59:09.488Z,101094.06
2022-11-18T02:01:40.168Z,101121.91
2022-11-18T02:04:11.482Z,101118.56
2022-11-18T02:06:43.462Z,101107.78
2022-11-18T02:09:16.739Z,101109.09
2022-11-18T02:11:55.383Z,101106.59
2022-11-18T02:14:32.207Z,101113.94
2022-11-18T02:17:34.581Z,101103.34
2022-11-18T02:20:25.064Z,101095.75
2022-11-18T02:23:30.247Z,101100.00
2022-11-18T02:26:00.914Z,101092.00
2022-11-18T02:28:52.866Z,101086.06
2022-11-18T02:32:03.880Z,101089.06
2022-11-18T02:34:47.240Z,101087.00
2022-11-18T02:37:25.631Z,101080.69
2022-11-18T02:40:25.807Z,101074.53
2022-11-18T02:43:05.217Z,101073.09
2022-11-18T02:45:36.670Z,101072.53
2022-11-18T02:48:10.807Z,101051.50
2022-11-18T02:50:43.002Z,101076.09
2022-11-18T02:53:17.396Z,101072.91
2022-11-18T02:55:50.843Z,101075.09
2022-11-18T02:58:22.873Z,101078.97
2022-11-18T03:01:02.131Z,101089.09
2022-11-18T03:03:37.522Z,101088.03
2022-11-18T03:06:13.366Z,101085.34
2022-11-18T03:09:01.603Z,101083.09
2022-11-18T03:11:38.887Z,101084.78
2022-11-18T03:14:34.721Z,101081.97
2022-11-18T03:17:32.406Z,101081.84
2022-11-18T03:20:15.837Z,101077.03
2022-11-18T03:23:02.635Z,101078.28
2022-11-18T03:25:47.504Z,101077.72
2022-11-18T03:28:26.579Z,101066.34
2022-11-18T03:31:11.304Z,101070.88
2022-11-18T03:33:49.681Z,101069.81
2022-11-18T03:36:22.593Z,101074.47
2022-11-18T03:38:58.412Z,101069.66
2022-11-18T03:41:33.985Z,101071.22
2022-11-18T03:44:22.650Z,101064.34
2022-11-18T03:47:07.846Z,101074.00
2022-11-18T03:49:46.562Z,101060.63
2022-11-18T03:52:24.258Z,101071.03
2022-11-18T03:54:58.100Z,101057.00
2022-11-18T03:57:40.498Z,101049.94
2022-11-18T04:00:16.924Z,101048.16
2022-11-18T04:02:49.152Z,101051.38
2022-11-18T04:05:21.537Z,101040.63
2022-11-18T04:08:06.803Z,101043.91
2022-11-18T04:11:03.566Z,101045.84
2022-11-18T04:13:36.379Z,101030.59
2022-11-18T04:16:11.192Z,101035.63
2022-11-18T04:18:41.318Z,101029.56
2022-11-18T04:21:11.371Z,101030.13
2022-11-18T04:23:41.124Z,101031.41
2022-11-18T04:26:12.946Z,101006.41
2022-11-18T04:28:43.344Z,101003.81
2022-11-18T04:31:13.335Z,101013.00
2022-11-18T04:33:43.767Z,101005.53
2022-11-18T04:36:13.738Z,101009.09
2022-11-18T04:38:44.210Z,101005.19
2022-11-18T04:41:14.198Z,100994.66
2022-11-18T04:43:44.847Z,100989.28
2022-11-18T04:46:14.821Z,100990.97
2022-11-18T04:48:45.247Z,100991.84
2022-11-18T04:51:15.244Z,100979.69
2022-11-18T04:53:45.709Z,100995.84
2022-11-18T04:56:15.697Z,100975.81
2022-11-18T04:58:46.033Z,100968.88
2022-11-18T05:01:15.976Z,101002.91
2022-11-18T05:03:50.556Z,100995.72
2022-11-18T05:06:20.829Z,100993.69
2022-11-18T05:08:51.661Z,100994.31
2022-11-18T05:11:40.065Z,100992.34
2022-11-18T05:14:10.439Z,100987.91
2022-11-18T05:16:40.297Z,100980.47
2022-11-18T05:19:11.098Z,100979.47
2022-11-18T05:21:41.042Z,100984.00
2022-11-18T05:24:14.343Z,100969.69
2022-11-18T05:26:44.620Z,100992.00
2022-11-18T05:29:16.053Z,100991.97
2022-11-18T05:31:47.591Z,100985.97
2022-11-18T05:34:19.413Z,100980.63
2022-11-18T05:36:49.558Z,100987.66
2022-11-18T05:39:20.785Z,100991.69
2022-11-18T05:42:09.497Z,100983.06
2022-11-18T05:44:39.948Z,100988.44
2022-11-18T05:47:09.926Z,100976.66
2022-11-18T05:49:40.528Z,100980.03
2022-11-18T05:52:10.333Z,100992.22
2022-11-18T05:54:43.918Z,100978.94
2022-11-18T05:57:14.032Z,100986.63
2022-11-18T05:59:44.405Z,100976.63
2022-11-18T06:02:23.381Z,100978.75
2022-11-18T06:05:03.532Z,100975.53
2022-11-18T06:07:40.812Z,100966.56
2022-11-18T06:10:18.068Z,100971.69
2022-11-18T06:12:51.808Z,100969.00
2022-11-18T06:15:29.984Z,100967.41
2022-11-18T06:18:04.681Z,100975.19
2022-11-18T06:20:37.755Z,100977.03
2022-11-18T06:23:07.722Z,100967.22
2022-11-18T06:25:41.753Z,100970.03
2022-11-18T06:28:13.673Z,100972.44
2022-11-18T06:30:44.372Z,100978.84
2022-11-18T06:33:14.320Z,100972.34
2022-11-18T06:35:45.806Z,100968.22
2022-11-18T06:38:15.808Z,100972.22
2022-11-18T06:40:46.321Z,100970.94
2022-11-18T06:43:34.443Z,100968.41
2022-11-18T06:46:24.854Z,100960.34
2022-11-18T06:48:54.810Z,100957.69
2022-11-18T06:51:25.962Z,100948.47
2022-11-18T06:53:56.476Z,100953.25
2022-11-18T06:56:27.043Z,100958.63
2022-11-18T06:59:02.079Z,100955.00
2022-11-18T07:01:40.470Z,100956.19
2022-11-18T07:04:10.552Z,100960.94
2022-11-18T07:06:40.931Z,100969.91
2022-11-18T07:09:10.952Z,100969.59
2022-11-18T07:11:42.532Z,100976.75
2022-11-18T07:14:14.334Z,100977.59
2022-11-18T07:16:44.968Z,100977.00
2022-11-18T07:19:15.818Z,100983.34
2022-11-18T07:21:46.358Z,100978.59
2022-11-18T07:24:17.488Z,100974.00
2022-11-18T07:26:47.993Z,100974.34
2022-11-18T07:29:18.215Z,100963.63
2022-11-18T07:31:48.754Z,100955.44
2022-11-18T07:34:18.772Z,100970.03
2022-11-18T07:36:49.387Z,100974.00
2022-11-18T07:39:20.635Z,100973.72
2022-11-18T07:41:51.654Z,100976.06
2022-11-18T07:44:21.754Z,100982.03
2022-11-18T07:46:52.163Z,100988.59
2022-11-18T07:49:22.321Z,100989.84
2022-11-18T07:51:53.499Z,100998.75
2022-11-18T07:54:23.519Z,100997.28
2022-11-18T07:56:53.354Z,101005.81
2022-11-18T07:59:23.755Z,100995.84
2022-11-18T08:01:53.805Z,100993.28
2022-11-18T08:04:24.734Z,101006.88
2022-11-18T08:06:54.756Z,101005.97
2022-11-18T08:09:25.315Z,101011.34
2022-11-18T08:11:55.452Z,101017.53
2022-11-18T08:14:27.927Z,101017.81
2022-11-18T08:16:58.174Z,101011.75
2022-11-18T08:19:28.564Z,101012.03
2022-11-18T08:21:58.375Z,101020.69
2022-11-18T08:24:28.786Z,101011.34
2022-11-18T08:26:58.840Z,101017.75
2022-11-18T08:29:30.048Z,101009.16
2022-11-18T08:32:01.088Z,101020.78
2022-11-18T08:34:34.609Z,101020.81
2022-11-18T08:37:04.730Z,101028.13
2022-11-18T08:39:35.091Z,101042.25
2022-11-18T08:42:05.228Z,101054.50
2022-11-18T08:44:35.849Z,101055.09
2022-11-18T08:47:05.883Z,101059.06
2022-11-18T08:49:36.287Z,101064.53
2022-11-18T08:52:06.497Z,101060.03
2022-11-18T08:54:39.997Z,101068.94
2022-11-18T08:57:10.042Z,101071.41
2022-11-18T08:59:40.413Z,101077.63
2022-11-18T09:02:18.123Z,101069.53
2022-11-18T09:04:52.862Z,101076.06
2022-11-18T09:07:23.876Z,101078.28
2022-11-18T09:09:54.415Z,101087.44
2022-11-18T09:12:24.547Z,101087.00
2022-11-18T09:15:12.794Z,101099.13
2022-11-18T09:17:44.635Z,101054.44
2022-11-18T09:20:14.594Z,101105.16
2022-11-18T09:22:45.975Z,101102.88
2022-11-18T09:25:16.559Z,101100.72
2022-11-18T09:27:46.586Z,101105.41
2022-11-18T09:30:16.426Z,101111.91
2022-11-18T09:32:46.852Z,101125.31
2022-11-18T09:35:16.924Z,101126.63
2022-11-18T09:37:47.466Z,101131.34
2022-11-18T09:40:20.006Z,101135.53
2022-11-18T09:43:13.651Z,101135.72
2022-11-18T09:45:51.062Z,101136.69
2022-11-18T09:48:43.309Z,101129.63
2022-11-18T09:51:14.638Z,101125.97
2022-11-18T09:53:46.693Z,101129.66
2022-11-18T09:56:18.389Z,101132.28
2022-11-18T09:58:49.454Z,101139.91
2022-11-18T10:01:22.659Z,101117.13
2022-11-18T10:03:53.069Z,101145.22
2022-11-18T10:06:31.042Z,101147.84
2022-11-18T10:09:42.506Z,101147.38
2022-11-18T10:12:27.549Z,101147.75
2022-11-18T10:15:21.565Z,101127.38
2022-11-18T10:18:08.764Z,101145.34
2022-11-18T10:20:52.222Z,101131.81
2022-11-18T10:23:46.875Z,101154.91
2022-11-18T10:26:16.962Z,101146.16
2022-11-18T10:28:47.458Z,101145.44
2022-11-18T10:31:17.326Z,101147.03
2022-11-18T10:33:47.777Z,101148.19
2022-11-18T10:36:21.601Z,101146.44
2022-11-18T10:39:15.958Z,101145.78
2022-11-18T10:41:56.366Z,101146.75
2022-11-18T10:44:41.526Z,101159.44
2022-11-18T10:47:29.998Z,101158.00
2022-11-18T10:50:24.097Z,101157.44
2022-11-18T10:52:55.126Z,101157.41
2022-11-18T10:55:27.541Z,101160.34
2022-11-18T10:58:04.502Z,101166.22
2022-11-18T11:00:40.474Z,101165.72
2022-11-18T11:03:33.341Z,101165.78
2022-11-18T11:06:28.289Z,101162.09
2022-11-18T11:09:01.648Z,101157.81
2022-11-18T11:11:40.959Z,101157.94
2022-11-18T11:14:20.454Z,101152.63
2022-11-18T11:16:53.994Z,101145.94
2022-11-18T11:19:28.357Z,101142.91
2022-11-18T11:21:59.209Z,101151.38
2022-11-18T11:24:29.697Z,101137.25
2022-11-18T11:30:19.794Z,101144.78
2022-11-18T11:32:53.328Z,101146.94
2022-11-18T11:35:29.932Z,101150.09
2022-11-18T11:38:04.821Z,101158.19
2022-11-18T11:40:42.968Z,101161.03
2022-11-18T11:43:28.053Z,101159.88
2022-11-18T11:46:21.697Z,101149.78
2022-11-18T11:49:05.094Z,101152.28
2022-11-18T11:51:53.991Z,101146.91
2022-11-18T11:55:13.731Z,101157.59
2022-11-18T11:58:07.731Z,101164.22
2022-11-18T12:00:46.917Z,101162.25
2022-11-18T12:03:51.462Z,101164.91
2022-11-18T12:06:22.876Z,101158.59
2022-11-18T12:09:35.260Z,101164.34
2022-11-18T12:12:37.725Z,101158.22
2022-11-18T12:15:32.816Z,101160.97
2022-11-18T12:18:17.181Z,101157.19
2022-11-18T12:20:49.998Z,101156.00
2022-11-18T12:23:28.858Z,101160.06
2022-11-18T12:26:03.184Z,101157.41
2022-11-18T12:28:44.731Z,101160.69
2022-11-18T12:31:35.865Z,101176.59
2022-11-18T12:34:20.934Z,101158.19
2022-11-18T12:36:53.340Z,101165.28
2022-11-18T12:39:26.948Z,101169.50
2022-11-18T12:42:20.573Z,101155.13
2022-11-18T12:44:53.389Z,101171.63
2022-11-18T12:47:45.116Z,101158.53
2022-11-18T12:50:17.305Z,101159.50
2022-11-18T12:52:48.882Z,101151.41
2022-11-18T12:55:34.078Z,101157.31
2022-11-18T12:58:04.133Z,101164.22
2022-11-18T13:00:53.280Z,101158.97
2022-11-18T13:03:30.127Z,101155.00
2022-11-18T13:06:14.141Z,101156.94
2022-11-18T13:08:45.705Z,101155.06
2022-11-18T13:11:36.714Z,101157.50
2022-11-18T13:14:25.960Z,101152.06
2022-11-18T13:17:13.807Z,101160.97
2022-11-18T13:19:44.335Z,101158.28
2022-11-18T13:22:37.890Z,101161.72
2022-11-18T13:25:24.881Z,101153.63
2022-11-18T13:28:12.843Z,101153.63
2022-11-18T13:31:10.656Z,101155.84
2022-11-18T13:33:41.826Z,101158.56
2022-11-18T13:36:26.550Z,101134.84
2022-11-18T13:39:02.924Z,101121.47
2022-11-18T13:41:36.045Z,101140.81
2022-11-18T13:44:19.969Z,101121.19
2022-11-18T13:46:55.943Z,101128.69
2022-11-18T13:49:48.941Z,101133.13
2022-11-18T13:52:27.821Z,101125.69
2022-11-18T13:55:01.265Z,101123.75
2022-11-18T13:57:32.301Z,101118.19
2022-11-18T14:00:06.778Z,101129.59
2022-11-18T14:02:47.331Z,101133.34
2022-11-18T14:05:21.898Z,101113.53
2022-11-18T14:08:24.785Z,101114.69
2022-11-18T14:10:54.990Z,101112.34
2022-11-18T14:13:53.278Z,101107.06
2022-11-18T14:16:23.175Z,101098.75
2022-11-18T14:18:54.093Z,101099.34
2022-11-18T14:21:36.117Z,101096.28
2022-11-18T14:24:07.935Z,101092.59
2022-11-18T14:26:39.971Z,101082.88
2022-11-18T14:29:24.014Z,101088.16
2022-11-18T14:32:16.341Z,101083.50
2022-11-18T14:34:46.697Z,101069.41
2022-11-18T14:37:17.009Z,101072.94
2022-11-18T14:39:57.452Z,101069.13
2022-11-18T14:42:28.141Z,101057.09
2022-11-18T14:44:58.527Z,101053.88
2022-11-18T14:47:31.433Z,101043.19
2022-11-18T14:50:02.080Z,101049.63
2022-11-18T14:52:32.006Z,101034.13
2022-11-18T14:55:02.404Z,101037.19
2022-11-18T14:57:32.396Z,101031.78
2022-11-18T15:00:02.809Z,101031.19
2022-11-18T15:02:32.914Z,101031.06
2022-11-18T15:05:03.392Z,101030.47
2022-11-18T15:07:33.361Z,101022.94
2022-11-18T15:10:03.911Z,101044.72
2022-11-18T15:12:33.827Z,101037.63
2022-11-18T15:15:04.492Z,101024.56
2022-11-18T15:17:35.774Z,101025.69
2022-11-18T15:20:10.817Z,101021.13
2022-11-18T15:22:40.810Z,101023.78
2022-11-18T15:25:11.817Z,101005.78
2022-11-18T15:27:41.804Z,101008.53
2022-11-18T15:30:15.196Z,100994.22
2022-11-18T15:32:45.289Z,100995.13
2022-11-18T15:35:15.718Z,100989.81
2022-11-18T15:37:45.778Z,100986.75
2022-11-18T15:40:16.310Z,100991.47
2022-11-18T15:42:51.875Z,100987.53
2022-11-18T15:45:24.592Z,100976.84
2022-11-18T15:47:54.668Z,100986.53
2022-11-18T15:50:25.173Z,100972.44
2022-11-18T15:52:56.464Z,100955.78
2022-11-18T15:55:26.988Z,100963.78
2022-11-18T15:57:56.910Z,100952.94
2022-11-18T16:00:27.485Z,100953.91
2022-11-18T16:02:57.440Z,100952.72
2022-11-18T16:05:27.250Z,100947.72
2022-11-18T16:07:57.685Z,100948.28
2022-11-18T16:10:45.681Z,100938.84
2022-11-18T16:13:16.028Z,100930.59
2022-11-18T16:15:48.269Z,100927.38
2022-11-18T16:18:20.758Z,100917.03
2022-11-18T16:20:51.402Z,100913.59
2022-11-18T16:23:21.405Z,100901.19
2022-11-18T16:25:51.394Z,100901.09
2022-11-18T16:28:22.038Z,100899.50
2022-11-18T16:31:11.076Z,100890.56
2022-11-18T16:33:41.037Z,100893.84
2022-11-18T16:36:10.774Z,100884.47
2022-11-18T16:38:40.748Z,100885.34
2022-11-18T16:41:32.666Z,100880.06
2022-11-18T16:44:04.976Z,100889.69
2022-11-18T16:46:37.768Z,100872.25
2022-11-18T16:49:08.929Z,100875.63
2022-11-18T16:51:41.106Z,100868.50
2022-11-18T16:54:20.845Z,100861.78
2022-11-18T16:56:52.507Z,100855.59
2022-11-18T16:59:31.049Z,100844.19
2022-11-18T17:02:03.120Z,100844.88
2022-11-18T17:04:36.380Z,100835.69
2022-11-18T17:07:07.555Z,100830.44
2022-11-18T17:09:38.448Z,100828.94
2022-11-18T17:12:09.158Z,100824.97
2022-11-18T17:14:41.058Z,100823.56
2022-11-18T17:17:11.608Z,100817.16
2022-11-18T17:19:41.385Z,100810.69
2022-11-18T17:22:12.298Z,100805.63
2022-11-18T17:24:42.324Z,100803.22
2022-11-18T17:27:12.735Z,100792.00
2022-11-18T17:29:42.862Z,100802.00
2022-11-18T17:32:13.561Z,100791.03
2022-11-18T17:34:43.419Z,100793.69
2022-11-18T17:37:13.955Z,100778.78
2022-11-18T17:39:43.967Z,100779.00
2022-11-18T17:42:18.902Z,100779.50
2022-11-18T17:44:49.649Z,100774.19
2022-11-18T17:47:20.652Z,100743.84
2022-11-18T17:49:52.448Z,100779.16
2022-11-18T17:52:22.949Z,100764.28
2022-11-18T17:54:53.590Z,100755.31
2022-11-18T17:57:24.097Z,100757.88
2022-11-18T17:59:54.162Z,100752.91
2022-11-18T18:02:27.854Z,100755.03
2022-11-18T18:04:59.208Z,100744.16
2022-11-18T18:07:31.748Z,100738.34
2022-11-18T18:10:01.837Z,100720.66
2022-11-18T18:12:51.631Z,100739.88
2022-11-18T18:15:21.761Z,100745.91
2022-11-18T18:17:52.231Z,100731.53
2022-11-18T18:20:22.557Z,100730.91
2022-11-18T18:22:54.847Z,100727.97
2022-11-18T18:25:25.369Z,100726.97
2022-11-18T18:27:55.810Z,100722.56
2022-11-18T18:30:25.891Z,100723.75
2022-11-18T18:32:56.330Z,100717.41
2022-11-18T18:35:26.363Z,100707.69
2022-11-18T18:37:56.859Z,100719.09
2022-11-18T18:40:26.878Z,100725.50
2022-11-18T18:43:00.857Z,100713.84
2022-11-18T18:45:48.999Z,100701.09
2022-11-18T18:48:19.473Z,100704.22
2022-11-18T18:50:49.380Z,100706.59
2022-11-18T18:53:19.984Z,100696.53
2022-11-18T18:55:50.128Z,100702.28
2022-11-18T18:58:20.653Z,100692.44
2022-11-18T19:00:54.263Z,100702.97
2022-11-18T19:03:28.490Z,100697.88
2022-11-18T19:06:34.572Z,100698.94
2022-11-18T19:08:50.187Z,100704.41
2022-11-18T19:11:38.723Z,100699.34
2022-11-18T19:14:12.442Z,100695.88
2022-11-18T19:16:44.033Z,100687.69
2022-11-18T19:19:16.822Z,100687.66
2022-11-18T19:21:49.733Z,100688.59
2022-11-18T19:24:47.663Z,100682.53
2022-11-18T19:27:10.412Z,100683.53
2022-11-18T19:29:40.855Z,100684.28
2022-11-18T19:32:11.053Z,100678.44
2022-11-18T19:34:41.494Z,100669.63
2022-11-18T19:37:11.333Z,100673.13
2022-11-18T19:39:42.051Z,100670.97
2022-11-18T19:42:12.144Z,100674.19
2022-11-18T19:44:44.215Z,100679.59
2022-11-18T19:47:14.383Z,100671.88
2022-11-18T19:49:45.467Z,100676.25
2022-11-18T19:52:15.536Z,100673.22
2022-11-18T19:54:45.331Z,100673.59
2022-11-18T19:57:15.917Z,100677.78
2022-11-18T19:59:47.146Z,100671.22
2022-11-18T20:02:17.728Z,100670.00
2022-11-18T20:05:07.479Z,100655.56
2022-11-18T20:07:38.113Z,100664.19
2022-11-18T20:10:10.374Z,100680.53
2022-11-18T20:12:40.851Z,100682.84
2022-11-18T20:15:11.579Z,100692.72
2022-11-18T20:17:42.111Z,100690.25
2022-11-18T20:20:12.495Z,100684.09
2022-11-18T20:22:43.043Z,100689.22
2022-11-18T20:25:16.737Z,100694.16
2022-11-18T20:27:47.468Z,100700.84
2022-11-18T20:30:18.853Z,100691.28
2022-11-18T20:32:49.503Z,100697.78
2022-11-18T20:35:19.599Z,100679.19
2022-11-18T20:37:50.093Z,100687.63
2022-11-18T20:40:20.128Z,100701.94
2022-11-18T20:43:08.608Z,100713.00
2022-11-18T20:45:38.868Z,100717.06
2022-11-18T20:48:10.115Z,100698.31
2022-11-18T20:50:40.969Z,100694.03
2022-11-18T20:53:11.686Z,100705.34
2022-11-18T20:55:41.927Z,100716.53
2022-11-18T20:58:13.468Z,100710.38
2022-11-18T21:00:44.761Z,100704.44
2022-11-18T21:03:15.516Z,100705.22
2022-11-18T21:05:45.528Z,100711.78
2022-11-18T21:08:16.816Z,100718.28
2022-11-18T21:10:47.250Z,100710.16
2022-11-18T21:13:35.110Z,100717.53
2022-11-18T21:16:05.670Z,100711.59
2022-11-18T21:18:39.225Z,100716.88
2022-11-18T21:21:28.027Z,100714.41
2022-11-18T21:24:00.422Z,100714.50
2022-11-18T21:26:35.477Z,100720.66
2022-11-18T21:29:08.485Z,100719.19
2022-11-18T21:31:39.564Z,100720.84
2022-11-18T21:34:10.114Z,100720.28
2022-11-18T21:36:47.858Z,100729.44
2022-11-18T21:39:20.792Z,100730.38
2022-11-18T21:41:55.806Z,100730.91
2022-11-18T21:44:28.941Z,100738.09
2022-11-18T21:46:59.529Z,100694.50
2022-11-18T21:49:28.827Z,100737.88
2022-11-18T21:51:58.712Z,100726.13
2022-11-18T21:54:29.113Z,100732.00
2022-11-18T21:56:59.181Z,100737.25
2022-11-18T21:59:29.637Z,100738.16
2022-11-18T22:01:59.702Z,100734.72
2022-11-18T22:04:59.188Z,100735.00
2022-11-18T22:07:29.286Z,100750.69
2022-11-18T22:09:59.860Z,100738.44
2022-11-18T22:12:29.963Z,100752.47
2022-11-18T22:15:00.578Z,100755.44
2022-11-18T22:17:30.381Z,100753.41
2022-11-18T22:20:00.866Z,100759.69
2022-11-18T22:22:31.584Z,100756.75
2022-11-18T22:25:00.869Z,100761.78
2022-11-18T22:27:31.338Z,100765.97
2022-11-18T22:30:01.351Z,100768.19
2022-11-18T22:32:31.830Z,100767.44
2022-11-18T22:35:01.832Z,100763.66
2022-11-18T22:37:32.355Z,100770.75
2022-11-18T22:40:02.347Z,100771.72
2022-11-18T22:42:51.676Z,100777.44
2022-11-18T22:45:21.937Z,100783.09
2022-11-18T22:47:52.443Z,100785.34
2022-11-18T22:50:22.661Z,100789.34
2022-11-18T22:52:53.325Z,100783.09
2022-11-18T22:55:23.405Z,100785.66
2022-11-18T22:57:53.877Z,100794.66
2022-11-18T23:00:23.369Z,100791.59
2022-11-18T23:02:53.023Z,100804.53
2022-11-18T23:05:23.568Z,100798.94
2022-11-18T23:07:53.358Z,100797.38
2022-11-18T23:10:23.898Z,100805.50
2022-11-18T23:13:11.904Z,100799.75
2022-11-18T23:15:42.299Z,100799.16
2022-11-18T23:18:12.354Z,100803.03
2022-11-18T23:20:42.828Z,100806.44
2022-11-18T23:23:12.815Z,100809.91
2022-11-18T23:25:43.276Z,100809.69
2022-11-18T23:28:13.257Z,100801.34
2022-11-18T23:30:43.786Z,100809.69
2022-11-18T23:33:13.394Z,100813.13
2022-11-18T23:35:43.186Z,100815.41
2022-11-18T23:38:13.663Z,100814.28
2022-11-18T23:40:43.680Z,100823.91
2022-11-18T23:43:14.116Z,100822.66
2022-11-18T23:45:44.199Z,100821.59
2022-11-18T23:48:14.666Z,100822.56
2022-11-18T23:50:58.762Z,100832.69
2022-11-18T23:53:31.684Z,100842.97
2022-11-18T23:56:03.983Z,100845.53
2022-11-18T23:58:34.545Z,100838.00
